createdAt,value
2019-05-22T00:00:16.971Z,99.99
2019-05-22T00:00:57.450Z,99.99
2019-05-22T00:01:38.006Z,99.99
2019-05-22T00:02:20.977Z,99.99
2019-05-22T00:03:00.714Z,99.99
2019-05-22T00:03:41.144Z,99.99
2019-05-22T00:04:22.147Z,99.99
2019-05-22T00:05:05.150Z,99.99
2019-05-22T00:06:27.802Z,99.99
2019-05-22T00:07:08.387Z,99.99
2019-05-22T00:07:48.874Z,99.99
2019-05-22T00:08:31.888Z,99.99
2019-05-22T00:09:13.528Z,99.99
2019-05-22T00:09:54.086Z,99.99
2019-05-22T00:10:34.601Z,99.99
2019-05-22T00:11:18.907Z,99.99
2019-05-22T00:11:59.681Z,99.99
2019-05-22T00:12:46.396Z,99.99
2019-05-22T00:13:23.321Z,99.99
2019-05-22T00:14:04.121Z,99.99
2019-05-22T00:14:44.583Z,99.99
2019-05-22T00:15:25.094Z,99.99
2019-05-22T00:16:05.525Z,99.99
2019-05-22T00:16:45.928Z,99.99
2019-05-22T00:17:26.411Z,99.99
2019-05-22T00:18:07.966Z,99.99
2019-05-22T00:18:50.285Z,99.99
2019-05-22T00:19:30.749Z,99.99
2019-05-22T00:20:11.159Z,99.99
2019-05-22T00:20:51.615Z,99.99
2019-05-22T00:21:32.063Z,99.99
2019-05-22T00:22:12.445Z,99.99
2019-05-22T00:22:52.877Z,99.99
2019-05-22T00:23:33.286Z,99.99
2019-05-22T00:24:13.667Z,99.99
2019-05-22T00:24:54.060Z,99.99
2019-05-22T00:27:18.425Z,99.99
2019-05-22T00:29:05.720Z,99.99
2019-05-22T00:29:48.647Z,99.99
2019-05-22T00:30:29.119Z,99.99
2019-05-22T00:31:09.509Z,99.99
2019-05-22T00:31:50.045Z,99.99
2019-05-22T00:32:30.468Z,99.99
2019-05-22T00:33:10.961Z,99.99
2019-05-22T00:33:51.466Z,99.99
2019-05-22T00:34:31.760Z,99.99
2019-05-22T00:35:12.358Z,99.99
2019-05-22T00:35:52.841Z,99.99
2019-05-22T00:37:14.314Z,99.99
2019-05-22T00:37:54.805Z,99.99
2019-05-22T00:38:35.327Z,99.99
2019-05-22T00:39:16.252Z,99.99
2019-05-22T00:39:56.819Z,99.99
2019-05-22T00:40:37.132Z,99.99
2019-05-22T00:41:17.551Z,99.99
2019-05-22T00:41:57.951Z,99.99
2019-05-22T00:42:38.369Z,99.99
2019-05-22T00:43:18.794Z,99.99
2019-05-22T00:43:59.264Z,99.99
2019-05-22T00:44:39.664Z,99.99
2019-05-22T00:45:20.060Z,99.99
2019-05-22T00:46:00.556Z,99.99
2019-05-22T00:46:40.956Z,99.99
2019-05-22T00:47:21.352Z,99.99
2019-05-22T00:48:01.774Z,99.99
2019-05-22T00:48:42.202Z,99.99
2019-05-22T00:49:22.637Z,99.99
2019-05-22T00:50:03.125Z,99.99
2019-05-22T00:51:51.642Z,99.99
2019-05-22T00:52:33.380Z,99.99
2019-05-22T00:53:13.783Z,99.99
2019-05-22T00:53:54.274Z,99.99
2019-05-22T00:57:54.642Z,99.99
2019-05-22T00:58:39.441Z,99.99
2019-05-22T00:59:19.904Z,99.99
2019-05-22T01:00:00.351Z,99.99
2019-05-22T01:00:40.763Z,99.99
2019-05-22T01:01:21.174Z,99.99
2019-05-22T01:02:01.580Z,99.99
2019-05-22T01:02:42.047Z,99.99
2019-05-22T01:03:22.503Z,99.99
2019-05-22T01:04:02.969Z,99.99
2019-05-22T01:04:43.336Z,99.99
2019-05-22T01:05:23.762Z,99.99
2019-05-22T01:07:23.108Z,99.99
2019-05-22T01:08:06.294Z,99.99
2019-05-22T01:08:46.803Z,99.99
2019-05-22T01:09:27.462Z,99.99
2019-05-22T01:10:07.882Z,99.99
2019-05-22T01:10:48.356Z,99.99
2019-05-22T01:11:29.633Z,99.99
2019-05-22T01:12:10.235Z,99.99
2019-05-22T01:12:51.031Z,99.99
2019-05-22T01:13:31.183Z,99.99
2019-05-22T01:14:11.597Z,99.99
2019-05-22T01:14:53.125Z,99.99
2019-05-22T01:15:34.357Z,99.99
2019-05-22T01:16:14.572Z,99.99
2019-05-22T01:20:11.730Z,99.99
2019-05-22T01:25:54.317Z,99.99
2019-05-22T01:26:40.163Z,99.99
2019-05-22T01:27:31.395Z,99.99
2019-05-22T01:28:19.981Z,99.99
2019-05-22T01:29:00.412Z,99.99
2019-05-22T01:29:40.792Z,99.99
2019-05-22T01:30:21.196Z,99.99
2019-05-22T01:31:01.626Z,99.99
2019-05-22T01:31:42.048Z,99.99
2019-05-22T01:32:22.479Z,99.99
2019-05-22T01:33:02.922Z,99.99
2019-05-22T01:33:43.400Z,99.99
2019-05-22T01:34:23.759Z,99.99
2019-05-22T01:35:04.189Z,99.99
2019-05-22T01:36:25.309Z,99.99
2019-05-22T01:37:05.718Z,99.99
2019-05-22T01:37:46.140Z,99.99
2019-05-22T01:39:07.855Z,99.99
2019-05-22T01:39:48.407Z,99.99
2019-05-22T01:40:29.279Z,99.99
2019-05-22T01:41:09.852Z,99.99
2019-05-22T01:41:50.312Z,99.99
2019-05-22T01:42:30.712Z,99.99
2019-05-22T01:43:11.088Z,99.99
2019-05-22T01:43:51.551Z,99.99
2019-05-22T01:44:31.992Z,99.99
2019-05-22T01:45:12.394Z,99.99
2019-05-22T01:45:53.218Z,99.99
2019-05-22T01:46:33.626Z,99.99
2019-05-22T01:47:14.017Z,99.99
2019-05-22T01:47:54.445Z,99.99
2019-05-22T01:48:35.800Z,99.99
2019-05-22T01:49:16.270Z,99.99
2019-05-22T01:49:56.679Z,99.99
2019-05-22T01:50:37.139Z,99.99
2019-05-22T01:51:17.584Z,99.99
2019-05-22T01:51:58.136Z,99.99
2019-05-22T01:52:38.786Z,99.99
2019-05-22T01:53:19.175Z,99.99
2019-05-22T01:53:59.565Z,99.99
2019-05-22T01:54:40.101Z,99.99
2019-05-22T01:55:20.475Z,99.99
2019-05-22T01:56:00.912Z,99.99
2019-05-22T01:56:41.370Z,99.99
2019-05-22T01:57:21.885Z,99.99
2019-05-22T01:58:02.290Z,99.99
2019-05-22T01:58:42.726Z,99.99
2019-05-22T01:59:23.225Z,99.99
2019-05-22T02:00:03.598Z,99.99
2019-05-22T02:00:44.163Z,99.99
2019-05-22T02:01:24.529Z,99.99
2019-05-22T02:02:04.959Z,99.99
2019-05-22T02:02:45.357Z,99.99
2019-05-22T02:03:25.862Z,99.99
2019-05-22T02:04:46.818Z,99.99
2019-05-22T02:05:27.191Z,99.99
2019-05-22T02:06:07.626Z,99.99
2019-05-22T02:06:48.813Z,99.99
2019-05-22T02:07:29.210Z,99.99
2019-05-22T02:08:09.631Z,99.99
2019-05-22T02:08:50.136Z,99.99
2019-05-22T02:09:30.493Z,99.99
2019-05-22T02:10:12.057Z,99.99
2019-05-22T02:10:52.440Z,99.99
2019-05-22T02:11:32.849Z,99.99
2019-05-22T02:12:13.292Z,99.99
2019-05-22T02:12:53.823Z,99.99
2019-05-22T02:13:34.265Z,99.99
2019-05-22T02:14:14.645Z,99.99
2019-05-22T02:14:55.516Z,99.99
2019-05-22T02:15:36.111Z,99.99
2019-05-22T02:16:16.564Z,99.99
2019-05-22T02:16:57.476Z,99.99
2019-05-22T02:17:37.418Z,99.99
2019-05-22T02:18:17.806Z,99.99
2019-05-22T02:18:58.278Z,99.99
2019-05-22T02:19:38.903Z,99.99
2019-05-22T02:20:19.807Z,99.99
2019-05-22T02:21:00.190Z,99.99
2019-05-22T02:21:40.731Z,99.99
2019-05-22T02:22:21.182Z,99.99
2019-05-22T02:23:01.767Z,99.99
2019-05-22T02:23:42.198Z,99.99
2019-05-22T02:24:22.629Z,99.99
2019-05-22T02:25:03.059Z,99.99
2019-05-22T02:25:43.524Z,99.99
2019-05-22T02:26:23.948Z,99.99
2019-05-22T02:27:04.343Z,99.99
2019-05-22T02:27:44.799Z,99.99
2019-05-22T02:28:25.202Z,99.99
2019-05-22T02:29:05.639Z,99.99
2019-05-22T02:29:46.140Z,99.99
2019-05-22T02:31:06.907Z,99.99
2019-05-22T02:33:08.257Z,99.99
2019-05-22T02:33:54.056Z,99.99
2019-05-22T02:34:34.515Z,99.99
2019-05-22T02:35:14.899Z,99.99
2019-05-22T02:35:55.437Z,99.99
2019-05-22T02:36:35.864Z,99.99
2019-05-22T02:37:16.262Z,99.99
2019-05-22T02:37:56.733Z,99.99
2019-05-22T02:38:37.384Z,99.99
2019-05-22T02:39:17.818Z,99.99
2019-05-22T02:39:58.239Z,99.99
2019-05-22T02:40:39.347Z,99.99
2019-05-22T02:41:19.740Z,99.99
2019-05-22T02:42:00.232Z,99.99
2019-05-22T02:42:40.691Z,99.99
2019-05-22T02:44:01.601Z,99.99
2019-05-22T02:44:42.025Z,99.99
2019-05-22T02:45:22.629Z,99.99
2019-05-22T02:46:03.032Z,99.99
2019-05-22T02:46:43.502Z,99.99
2019-05-22T02:47:23.898Z,99.99
2019-05-22T02:48:04.345Z,99.99
2019-05-22T02:48:44.813Z,99.99
2019-05-22T02:52:47.173Z,99.99
2019-05-22T02:53:35.950Z,99.99
2019-05-22T02:54:16.402Z,99.99
2019-05-22T02:54:56.826Z,99.99
2019-05-22T02:55:37.236Z,99.99
2019-05-22T02:56:17.843Z,99.99
2019-05-22T02:56:58.419Z,99.99
2019-05-22T02:57:38.906Z,99.99
2019-05-22T02:58:19.332Z,99.99
2019-05-22T02:58:59.931Z,99.99
2019-05-22T02:59:40.412Z,99.99
2019-05-22T03:00:20.971Z,99.99
2019-05-22T03:01:02.210Z,99.99
2019-05-22T03:01:42.633Z,99.99
2019-05-22T03:02:23.052Z,99.99
2019-05-22T03:03:03.440Z,99.99
2019-05-22T03:03:44.004Z,99.99
2019-05-22T03:04:24.369Z,99.99
2019-05-22T03:05:04.804Z,99.99
2019-05-22T03:05:45.356Z,99.99
2019-05-22T03:06:26.357Z,99.99
2019-05-22T03:07:06.763Z,99.99
2019-05-22T03:07:47.243Z,99.99
2019-05-22T03:08:27.796Z,99.99
2019-05-22T03:09:08.398Z,99.99
2019-05-22T03:09:48.898Z,99.99
2019-05-22T03:10:29.418Z,99.99
2019-05-22T03:11:09.835Z,99.99
2019-05-22T03:11:50.300Z,99.99
2019-05-22T03:12:30.706Z,99.99
2019-05-22T03:13:11.166Z,99.99
2019-05-22T03:13:51.617Z,99.99
2019-05-22T03:14:32.242Z,99.99
2019-05-22T03:15:12.642Z,99.99
2019-05-22T03:15:53.085Z,99.99
2019-05-22T03:16:33.524Z,99.99
2019-05-22T03:17:14.018Z,99.99
2019-05-22T03:17:54.808Z,99.99
2019-05-22T03:18:35.244Z,99.99
2019-05-22T03:19:15.810Z,99.99
2019-05-22T03:20:36.798Z,99.99
2019-05-22T03:21:17.190Z,99.99
2019-05-22T03:21:57.599Z,99.99
2019-05-22T03:23:18.526Z,99.99
2019-05-22T03:23:58.859Z,99.99
2019-05-22T03:24:39.267Z,99.99
2019-05-22T03:26:00.541Z,99.99
2019-05-22T03:26:40.886Z,99.99
2019-05-22T03:27:21.316Z,99.99
2019-05-22T03:28:01.862Z,99.99
2019-05-22T03:28:42.334Z,99.99
2019-05-22T03:29:22.729Z,99.99
2019-05-22T03:30:03.291Z,99.99
2019-05-22T03:30:43.830Z,99.99
2019-05-22T03:31:24.201Z,99.99
2019-05-22T03:32:04.604Z,99.99
2019-05-22T03:32:45.167Z,99.99
2019-05-22T03:33:26.438Z,99.99
2019-05-22T03:34:06.907Z,99.99
2019-05-22T03:34:47.302Z,99.99
2019-05-22T03:35:27.754Z,99.99
2019-05-22T03:36:48.540Z,99.99
2019-05-22T03:37:28.971Z,99.99
2019-05-22T03:38:09.459Z,99.99
2019-05-22T03:39:30.599Z,99.99
2019-05-22T03:40:10.995Z,99.99
2019-05-22T03:40:51.421Z,99.99
2019-05-22T03:41:32.058Z,99.99
2019-05-22T03:42:12.518Z,99.99
2019-05-22T03:42:53.011Z,99.99
2019-05-22T03:43:33.389Z,99.99
2019-05-22T03:44:14.513Z,99.99
2019-05-22T03:44:54.932Z,99.99
2019-05-22T03:45:35.409Z,99.99
2019-05-22T03:46:15.989Z,99.99
2019-05-22T03:46:59.362Z,99.99
2019-05-22T03:47:37.288Z,99.99
2019-05-22T03:48:18.002Z,99.99
2019-05-22T03:49:38.893Z,99.99
2019-05-22T03:50:19.433Z,99.99
2019-05-22T03:51:00.206Z,99.99
2019-05-22T03:51:40.913Z,99.99
2019-05-22T03:52:21.376Z,99.99
2019-05-22T03:53:01.748Z,99.99
2019-05-22T03:53:42.287Z,99.99
2019-05-22T03:54:23.017Z,99.99
2019-05-22T03:55:03.443Z,99.99
2019-05-22T03:55:43.877Z,99.99
2019-05-22T03:56:24.524Z,99.99
2019-05-22T03:57:04.963Z,99.99
2019-05-22T03:57:45.413Z,99.99
2019-05-22T03:58:25.827Z,99.99
2019-05-22T03:59:06.278Z,99.99
2019-05-22T03:59:46.687Z,99.99
2019-05-22T04:01:08.949Z,99.99
2019-05-22T04:01:50.314Z,99.99
2019-05-22T04:02:31.118Z,99.99
2019-05-22T04:03:11.597Z,99.71
2019-05-22T04:03:52.070Z,99.99
2019-05-22T04:04:32.607Z,99.99
2019-05-22T04:05:13.021Z,99.99
2019-05-22T04:05:54.435Z,99.99
2019-05-22T04:06:34.860Z,99.99
2019-05-22T04:07:15.302Z,99.99
2019-05-22T04:07:55.696Z,99.99
2019-05-22T04:09:17.494Z,99.99
2019-05-22T04:09:58.163Z,99.14
2019-05-22T04:10:40.944Z,99.04
2019-05-22T04:11:59.805Z,98.37
2019-05-22T04:12:40.655Z,98.57
2019-05-22T04:13:21.097Z,99.14
2019-05-22T04:14:41.956Z,98.47
2019-05-22T04:15:22.373Z,98.94
2019-05-22T04:16:03.767Z,98.94
2019-05-22T04:16:44.550Z,98.37
2019-05-22T04:17:25.002Z,98.37
2019-05-22T04:18:05.402Z,98.75
2019-05-22T04:18:45.841Z,98.75
2019-05-22T04:19:26.578Z,99.9
2019-05-22T04:20:07.097Z,99.23
2019-05-22T04:20:48.612Z,99.43
2019-05-22T04:21:29.242Z,98.47
2019-05-22T04:22:09.743Z,97.13
2019-05-22T04:22:50.382Z,97.8
2019-05-22T04:23:30.846Z,98.47
2019-05-22T04:24:51.887Z,98.47
2019-05-22T04:25:32.246Z,98.94
2019-05-22T04:26:12.790Z,99.23
2019-05-22T04:26:53.089Z,98.66
2019-05-22T04:27:33.481Z,98.47
2019-05-22T05:11:18.810Z,99.99
2019-05-22T05:11:59.076Z,99.99
2019-05-22T05:12:40.166Z,99.99
2019-05-22T05:13:20.597Z,99.99
2019-05-22T05:14:00.997Z,99.04
2019-05-22T05:14:41.497Z,98.94
2019-05-22T05:15:21.965Z,99.04
2019-05-22T05:16:02.774Z,99.8
2019-05-22T05:16:43.280Z,99.99
2019-05-22T05:18:47.969Z,99.33
2019-05-22T05:20:50.145Z,99.14
2019-05-22T05:21:30.527Z,98.75
2019-05-22T05:22:10.949Z,99.23
2019-05-22T05:22:51.567Z,98.94
2019-05-22T05:23:31.814Z,97.52
2019-05-22T05:24:12.212Z,97.61
2019-05-22T05:24:55.463Z,96.27
2019-05-22T05:35:14.677Z,92.88
2019-05-22T05:42:00.639Z,91.02
2019-05-22T05:43:55.064Z,90.73
2019-05-22T05:44:35.467Z,90.16
2019-05-22T05:45:17.837Z,89.39
2019-05-22T05:46:13.310Z,90.16
2019-05-22T05:46:54.052Z,91.02
2019-05-22T05:47:34.398Z,89.39
2019-05-22T05:48:14.906Z,90.16
2019-05-22T05:48:55.340Z,89.2
2019-05-22T05:49:35.831Z,88.72
2019-05-22T05:50:18.295Z,88.81
2019-05-22T05:51:00.525Z,88.81
2019-05-22T05:51:41.994Z,87.86
2019-05-22T05:52:22.762Z,88.43
2019-05-22T05:54:05.779Z,88.15
2019-05-22T05:54:46.626Z,88.24
2019-05-22T05:55:29.859Z,88.81
2019-05-22T05:56:10.370Z,88.34
2019-05-22T05:56:51.491Z,88.43
2019-05-22T05:57:31.711Z,88.53
2019-05-22T05:58:12.948Z,88.34
2019-05-22T05:58:58.460Z,87.19
2019-05-22T05:59:38.195Z,87.48
2019-05-22T06:00:19.426Z,88.15
2019-05-22T06:01:00.187Z,86.71
2019-05-22T06:01:41.178Z,87.09
2019-05-22T06:02:21.891Z,87.86
2019-05-22T06:03:02.535Z,88.15
2019-05-22T06:03:43.050Z,88.15
2019-05-22T06:04:33.889Z,88.34
2019-05-22T06:05:03.913Z,86.71
2019-05-22T06:05:44.170Z,86.61
2019-05-22T06:06:24.600Z,87
2019-05-22T06:07:05.219Z,87.19
2019-05-22T06:07:45.641Z,87
2019-05-22T06:08:26.129Z,86.61
2019-05-22T06:09:06.513Z,87.19
2019-05-22T06:09:47.402Z,87.66
2019-05-22T06:10:30.050Z,88.15
2019-05-22T06:11:10.371Z,88.15
2019-05-22T06:11:52.126Z,87.86
2019-05-22T06:12:32.889Z,88.05
2019-05-22T06:13:13.251Z,87.95
2019-05-22T06:13:53.581Z,88.15
2019-05-22T06:14:34.107Z,88.15
2019-05-22T06:15:14.905Z,87.29
2019-05-22T06:15:55.578Z,87.29
2019-05-22T06:16:35.608Z,87.19
2019-05-22T06:17:16.011Z,87.86
2019-05-22T06:17:56.479Z,87.66
2019-05-22T06:18:37.817Z,87.19
2019-05-22T06:19:18.589Z,86.23
2019-05-22T06:19:59.976Z,87.09
2019-05-22T06:20:39.754Z,87.38
2019-05-22T06:21:20.233Z,87.19
2019-05-22T06:22:00.589Z,86.43
2019-05-22T06:22:43.005Z,86.14
2019-05-22T06:23:23.380Z,86.04
2019-05-22T06:24:04.193Z,86.23
2019-05-22T06:24:44.682Z,87.19
2019-05-22T06:25:25.104Z,86.71
2019-05-22T06:26:05.549Z,86.43
2019-05-22T06:27:26.299Z,86.14
2019-05-22T06:28:07.976Z,86.76
2019-05-22T06:28:48.443Z,87.14
2019-05-22T06:29:29.814Z,86.43
2019-05-22T06:30:11.550Z,86.28
2019-05-22T06:30:51.993Z,86.08
2019-05-22T06:31:32.448Z,86.66
2019-05-22T06:32:15.377Z,86.47
2019-05-22T06:32:57.389Z,85.61
2019-05-22T06:33:37.863Z,84.75
2019-05-22T06:34:18.373Z,84.55
2019-05-22T06:34:59.770Z,85.71
2019-05-22T06:36:19.749Z,85.8
2019-05-22T06:37:00.671Z,85.03
2019-05-22T06:37:40.998Z,84.55
2019-05-22T06:38:21.539Z,84.55
2019-05-22T06:39:05.440Z,84.36
2019-05-22T06:39:46.514Z,84.17
2019-05-22T06:40:27.518Z,84.36
2019-05-22T06:41:07.745Z,84.36
2019-05-22T06:41:49.484Z,84.55
2019-05-22T06:42:29.950Z,85.51
2019-05-22T06:43:10.490Z,84.65
2019-05-22T06:43:50.914Z,83.89
2019-05-22T06:44:31.705Z,83.98
2019-05-22T06:45:15.154Z,84.55
2019-05-22T06:45:55.613Z,84.27
2019-05-22T06:46:36.093Z,84.55
2019-05-22T06:47:16.983Z,84.08
2019-05-22T06:48:37.770Z,84.17
2019-05-22T06:49:18.208Z,84.46
2019-05-22T06:49:58.659Z,84.08
2019-05-22T06:50:39.070Z,83.6
2019-05-22T06:51:19.918Z,83.03
2019-05-22T06:52:02.914Z,83.12
2019-05-22T06:52:43.403Z,83.31
2019-05-22T06:53:23.177Z,83.79
2019-05-22T06:54:04.564Z,83.31
2019-05-22T06:55:25.595Z,84.46
2019-05-22T06:56:06.028Z,84.08
2019-05-22T06:56:46.469Z,83.79
2019-05-22T06:58:07.660Z,83.79
2019-05-22T06:58:48.126Z,83.69
2019-05-22T06:59:30.249Z,82.93
2019-05-22T07:00:13.791Z,84.27
2019-05-22T07:00:51.036Z,83.83
2019-05-22T07:01:31.754Z,83.83
2019-05-22T07:02:12.121Z,83.54
2019-05-22T07:03:00.361Z,82.78
2019-05-22T07:04:01.870Z,82.78
2019-05-22T07:06:12.848Z,81.92
2019-05-22T07:06:52.493Z,81.44
2019-05-22T07:07:33.321Z,81.54
2019-05-22T07:08:14.146Z,81.63
2019-05-22T07:09:09.351Z,80.87
2019-05-22T07:09:52.389Z,81.34
2019-05-22T07:10:35.235Z,80.96
2019-05-22T07:11:15.046Z,80.96
2019-05-22T07:11:55.482Z,80.19
2019-05-22T07:38:45.209Z,76.92
2019-05-22T07:39:25.327Z,77.31
2019-05-22T07:40:05.865Z,77.31
2019-05-22T07:40:50.112Z,77.31
2019-05-22T07:41:26.671Z,77.11
2019-05-22T07:42:09.013Z,76.44
2019-05-22T07:44:34.078Z,76.92
2019-05-22T07:45:12.769Z,76.73
2019-05-22T07:45:53.589Z,76.73
2019-05-22T07:46:42.146Z,76.92
2019-05-22T07:47:24.497Z,76.92
2019-05-22T07:48:08.924Z,76.92
2019-05-22T07:48:49.208Z,76.25
2019-05-22T07:49:30.208Z,76.25
2019-05-22T07:50:12.895Z,76.25
2019-05-22T07:50:54.162Z,76.73
2019-05-22T07:51:50.376Z,76.54
2019-05-22T07:52:16.237Z,76.25
2019-05-22T07:52:56.674Z,76.25
2019-05-22T07:53:37.215Z,75.39
2019-05-22T07:54:17.583Z,75.68
2019-05-22T07:55:00.865Z,75.1
2019-05-22T07:55:42.229Z,75.2
2019-05-22T07:57:03.922Z,76.25
2019-05-22T07:57:45.580Z,75.96
2019-05-22T07:58:25.860Z,76.44
2019-05-22T07:59:06.333Z,75.87
2019-05-22T07:59:49.428Z,76.54
2019-05-22T08:00:30.114Z,77.4
2019-05-22T08:01:10.511Z,76.92
2019-05-22T08:01:53.657Z,77.02
2019-05-22T08:02:34.148Z,76.54
2019-05-22T08:03:14.631Z,76.29
2019-05-22T08:03:56.825Z,76.15
2019-05-22T08:04:42.033Z,76.25
2019-05-22T08:05:25.454Z,76.44
2019-05-22T08:06:06.828Z,76.54
2019-05-22T08:06:47.500Z,76.73
2019-05-22T08:07:27.841Z,76.73
2019-05-22T08:08:08.239Z,76.92
2019-05-22T08:08:50.553Z,76.25
2019-05-22T08:09:32.321Z,75.96
2019-05-22T08:10:12.859Z,76.86
2019-05-22T08:10:53.317Z,76
2019-05-22T08:11:37.315Z,76.1
2019-05-22T08:12:17.794Z,75.81
2019-05-22T08:12:58.308Z,75.81
2019-05-22T08:13:38.753Z,75.52
2019-05-22T08:14:20.456Z,74.76
2019-05-22T08:15:02.513Z,74.95
2019-05-22T08:16:23.871Z,74.79
2019-05-22T08:17:04.373Z,73.9
2019-05-22T08:17:47.882Z,73.9
2019-05-22T08:18:30.312Z,73.7
2019-05-22T08:19:10.906Z,73.8
2019-05-22T08:19:51.290Z,74.37
2019-05-22T08:20:32.314Z,74.47
2019-05-22T08:21:13.173Z,74.08
2019-05-22T08:22:05.983Z,73.9
2019-05-22T08:22:35.306Z,74.47
2019-05-22T08:23:19.028Z,74.85
2019-05-22T08:23:59.495Z,74.95
2019-05-22T08:24:40.172Z,74.79
2019-05-22T08:25:25.260Z,74.51
2019-05-22T08:26:05.356Z,74.12
2019-05-22T08:26:54.081Z,72.88
2019-05-22T08:27:26.132Z,73.45
2019-05-22T08:28:07.740Z,72.78
2019-05-22T08:28:47.390Z,71.72
2019-05-22T08:29:28.967Z,72.3
2019-05-22T08:30:10.942Z,72.24
2019-05-22T08:30:50.671Z,72.01
2019-05-22T08:31:31.085Z,72.53
2019-05-22T08:32:11.697Z,72.81
2019-05-22T08:32:51.918Z,72.14
2019-05-22T08:33:34.459Z,72.24
2019-05-22T08:34:14.806Z,72.33
2019-05-22T08:34:55.566Z,71.28
2019-05-22T08:35:36.163Z,71.28
2019-05-22T08:36:19.242Z,71.19
2019-05-22T08:37:42.826Z,70.9
2019-05-22T08:38:22.854Z,69.97
2019-05-22T08:39:03.322Z,69.97
2019-05-22T08:39:45.484Z,69.59
2019-05-22T08:41:08.486Z,69.68
2019-05-22T08:41:48.945Z,69.49
2019-05-22T08:42:34.845Z,69.43
2019-05-22T08:43:11.769Z,69.2
2019-05-22T08:44:14.234Z,69.05
2019-05-22T08:44:33.648Z,68.47
2019-05-22T08:45:15.055Z,68.85
2019-05-22T08:45:55.562Z,68.66
2019-05-22T08:46:36.101Z,67.03
2019-05-22T08:47:18.561Z,68.08
2019-05-22T08:47:58.656Z,68.47
2019-05-22T08:48:47.364Z,68.18
2019-05-22T08:49:27.845Z,67.61
2019-05-22T08:50:10.115Z,68.28
2019-05-22T08:51:34.819Z,67.99
2019-05-22T08:52:23.268Z,67.99
2019-05-22T08:52:56.834Z,68.76
2019-05-22T08:53:47.093Z,68.57
2019-05-22T08:56:45.619Z,68.47
2019-05-22T08:57:27.587Z,67.99
2019-05-22T08:58:08.997Z,67.99
2019-05-22T08:58:51.329Z,67.99
2019-05-22T08:59:34.750Z,67.99
2019-05-22T09:00:15.393Z,67.22
2019-05-22T09:00:55.820Z,67.99
2019-05-22T09:01:36.296Z,68.28
2019-05-22T09:02:22.585Z,67.22
2019-05-22T09:03:03.466Z,66.74
2019-05-22T09:03:43.881Z,66.46
2019-05-22T09:04:24.308Z,66.55
2019-05-22T09:05:05.062Z,66.77
2019-05-22T09:05:45.572Z,67.83
2019-05-22T09:06:26.712Z,67.54
2019-05-22T09:07:07.206Z,66.97
2019-05-22T09:07:47.883Z,66.68
2019-05-22T09:08:30.539Z,66.2
2019-05-22T09:09:10.874Z,66.77
2019-05-22T09:09:51.347Z,66.2
2019-05-22T09:14:20.432Z,64.69
2019-05-22T09:15:30.883Z,63.73
2019-05-22T09:16:12.327Z,62.68
2019-05-22T09:16:53.353Z,62.96
2019-05-22T09:17:33.904Z,62.77
2019-05-22T09:18:15.283Z,62.29
2019-05-22T09:18:56.152Z,62.41
2019-05-22T09:19:38.643Z,62.41
2019-05-22T09:22:59.799Z,61.87
2019-05-22T09:23:40.950Z,60.72
2019-05-22T09:24:21.288Z,60.42
2019-05-22T09:25:01.949Z,60.81
2019-05-22T09:25:44.863Z,61.04
2019-05-22T09:26:25.296Z,60.27
2019-05-22T09:27:07.651Z,59.59
2019-05-22T09:27:48.849Z,58.53
2019-05-22T09:28:29.309Z,58.24
2019-05-22T09:29:10.169Z,58.02
2019-05-22T09:29:51.468Z,57.92
2019-05-22T09:30:31.757Z,57.92
2019-05-22T09:31:12.327Z,59.37
2019-05-22T09:36:51.891Z,54.83
2019-05-22T09:37:34.497Z,54.18
2019-05-22T09:38:14.890Z,53.61
2019-05-22T09:38:57.055Z,53.61
2019-05-22T09:39:38.519Z,52.86
2019-05-22T09:40:20.904Z,52.37
2019-05-22T09:41:01.485Z,52.09
2019-05-22T09:42:22.573Z,51.15
2019-05-22T09:43:03.987Z,51.15
2019-05-22T09:43:47.945Z,50.28
2019-05-22T09:44:29.063Z,49.99
2019-05-22T09:49:23.980Z,49.63
2019-05-22T09:50:05.320Z,49.53
2019-05-22T09:50:46.412Z,48.69
2019-05-22T09:51:26.851Z,48.88
2019-05-22T09:52:07.255Z,49.17
2019-05-22T09:52:57.355Z,48.59
2019-05-22T09:53:31.794Z,48.59
2019-05-22T09:54:12.137Z,47.36
2019-05-22T09:54:53.567Z,46.68
2019-05-22T09:55:34.934Z,45.81
2019-05-22T09:56:15.690Z,46.78
2019-05-22T09:56:56.699Z,47.19
2019-05-22T09:58:17.872Z,45.74
2019-05-22T09:59:00.477Z,45.16
2019-05-22T09:59:42.409Z,44.98
2019-05-22T10:03:33.404Z,44.79
2019-05-22T10:04:19.661Z,45.28
2019-05-22T10:05:00.522Z,45.01
2019-05-22T10:05:41.811Z,44.53
2019-05-22T10:06:22.997Z,42.88
2019-05-22T10:07:03.296Z,43.55
2019-05-22T10:07:58.753Z,43.29
2019-05-22T10:08:33.859Z,43.96
2019-05-22T10:09:17.980Z,42.82
2019-05-22T10:09:58.765Z,43.02
2019-05-22T10:10:40.798Z,42.34
2019-05-22T10:11:25.361Z,41.76
2019-05-22T10:12:06.093Z,42.82
2019-05-22T10:12:51.836Z,43.21
2019-05-22T10:13:34.745Z,43.89
2019-05-22T10:14:15.433Z,43.02
2019-05-22T10:14:55.954Z,43.12
2019-05-22T10:15:38.924Z,42.24
2019-05-22T10:26:09.061Z,41.51
2019-05-22T10:26:48.625Z,41.7
2019-05-22T10:27:29.700Z,40.56
2019-05-22T10:28:11.695Z,40.36
2019-05-22T10:28:51.994Z,40.26
2019-05-22T11:08:53.650Z,38.54
2019-05-22T11:09:36.585Z,38.25
2019-05-22T11:10:17.252Z,37.96
2019-05-22T11:10:59.696Z,37.49
2019-05-22T11:11:41.515Z,37.3
2019-05-22T11:12:22.989Z,38.07
2019-05-22T11:13:04.288Z,37.86
2019-05-22T11:14:00.453Z,38.25
2019-05-22T11:14:26.814Z,38.25
2019-05-22T11:15:07.215Z,37.37
2019-05-22T11:15:47.881Z,36.29
2019-05-22T11:16:28.337Z,37.94
2019-05-22T11:17:11.725Z,38.13
2019-05-22T11:17:54.402Z,38.42
2019-05-22T11:18:35.045Z,38.93
2019-05-22T11:19:16.348Z,39.22
2019-05-22T11:19:58.116Z,39.12
2019-05-22T11:20:38.346Z,39.22
2019-05-22T11:21:23.120Z,38.73
2019-05-22T11:22:03.771Z,37.86
2019-05-22T11:22:44.148Z,38.25
2019-05-22T11:23:24.801Z,37.49
2019-05-22T11:24:08.265Z,35.84
2019-05-22T11:24:50.394Z,37.3
2019-05-22T11:25:31.723Z,37.98
2019-05-22T11:26:14.331Z,37.39
2019-05-22T11:26:56.758Z,36.22
2019-05-22T11:27:37.462Z,37.59
2019-05-22T11:28:21.561Z,37.3
2019-05-22T11:29:02.856Z,36.42
2019-05-22T11:29:59.156Z,36.15
2019-05-22T11:30:40.475Z,38.29
2019-05-22T11:31:21.929Z,37.8
2019-05-22T11:32:07.108Z,37.6
2019-05-22T11:32:49.762Z,37.43
2019-05-22T11:33:34.140Z,37.82
2019-05-22T11:34:11.294Z,37.62
2019-05-22T11:34:54.346Z,36.94
2019-05-22T11:35:38.259Z,36.94
2019-05-22T11:36:22.556Z,36.15
2019-05-22T11:37:04.823Z,36.52
2019-05-22T11:37:46.970Z,36.91
2019-05-22T11:38:27.353Z,37.59
2019-05-22T11:39:07.753Z,36.91
2019-05-22T11:39:51.156Z,37.3
2019-05-22T11:40:43.780Z,37.98
2019-05-22T11:41:30.646Z,37.98
2019-05-22T11:42:12.633Z,37.39
2019-05-22T11:42:54.414Z,37.39
2019-05-22T11:43:40.160Z,37.6
2019-05-22T11:44:20.699Z,37.02
2019-05-22T11:45:03.661Z,36.63
2019-05-22T11:45:46.301Z,36.93
2019-05-22T11:46:29.163Z,36.93
2019-05-22T11:47:10.392Z,37.22
2019-05-22T11:47:50.802Z,36.46
2019-05-22T11:48:31.370Z,37.14
2019-05-22T11:49:12.318Z,36.75
2019-05-22T11:49:53.925Z,35.88
2019-05-22T11:50:36.832Z,35.41
2019-05-22T11:51:18.284Z,35.41
2019-05-22T11:52:00.519Z,34.82
2019-05-22T11:52:46.884Z,34.24
2019-05-22T11:53:31.992Z,34.45
2019-05-22T11:54:12.439Z,34.92
2019-05-22T11:54:53.481Z,35.41
2019-05-22T12:14:43.325Z,35.41
2019-05-22T12:15:23.497Z,35.5
2019-05-22T12:16:06.451Z,35.8
2019-05-22T12:16:46.961Z,35.7
2019-05-22T12:17:37.817Z,35.5
2019-05-22T12:18:10.731Z,35.6
2019-05-22T12:18:51.082Z,35.31
2019-05-22T12:19:33.037Z,35.5
2019-05-22T12:20:15.938Z,35.02
2019-05-22T12:20:58.173Z,35.31
2019-05-22T12:21:39.481Z,35.78
2019-05-22T12:22:22.065Z,35.78
2019-05-22T12:23:03.801Z,36.24
2019-05-22T12:23:43.761Z,36.73
2019-05-22T12:24:28.660Z,36.15
2019-05-22T12:25:05.709Z,36.05
2019-05-22T12:25:48.031Z,36.54
2019-05-22T12:26:28.838Z,36.44
2019-05-22T12:27:10.257Z,37.12
2019-05-22T12:27:53.105Z,36.93
2019-05-22T12:28:34.388Z,36.73
2019-05-22T12:29:19.717Z,36.46
2019-05-22T12:30:00.284Z,36.85
2019-05-22T12:30:43.392Z,36.55
2019-05-22T12:31:25.996Z,35.68
2019-05-22T12:32:06.283Z,36.16
2019-05-22T12:32:46.773Z,35.68
2019-05-22T12:33:30.913Z,35.88
2019-05-22T12:34:11.481Z,36.85
2019-05-22T12:34:51.972Z,37.02
2019-05-22T12:35:34.305Z,36.24
2019-05-22T12:36:14.385Z,36.34
2019-05-22T12:36:54.811Z,36.34